Terminal Aerodrome Forecast
Issued by NWS

Home | Current Version | Previous Version | Text Only | Print | Product List | Glossary On
Versions: 1 2 3 4 5 6 7 8 9 10 11 12 13 14 15 16 17
000
FTUS46 KMFR 211147
TAFLMT
TAF
KLMT 211147Z 2112/2212 17006KT 5SM -SN OVC020
      TEMPO 2112/2116 1/2SM SN OVC015
     FM211600 17010KT P6SM VCSH BKN020 OVC050
     FM212100 20012KT P6SM VCSH OVC050
     FM220400 21009KT P6SM BKN035 OVC100
     FM220600 20009KT P6SM BKN050
     FM221100 23006KT P6SM SCT250=

USA.gov is the U.S. government's official web portal to all federal, state and local government web resources and services.